Time;durP1;ratioP1;P1;durP2;ratioP2;P2;SDS_P1;SDS_P2;PMS_P1;PMS_P2;Temp;Humidity;BMP_temperature;BMP_pressure;BME280_temperature;BME280_humidity;BME280_pressure;Samples;Min_cycle;Max_cycle;Signal;HPM_P1;HPM_P2
2022/09/10 00:00:08;;;;;;;10.10;7.45;;;;;;;19.48;80.12;96942.81;5047010;28;20140;-61
2022/09/10 00:02:35;;;;;;;11.60;7.88;;;;;;;19.51;79.51;96936.34;5045761;28;20089;-64
2022/09/10 00:05:01;;;;;;;10.48;7.50;;;;;;;19.60;79.60;96944.19;5047284;28;20056;-61
2022/09/10 00:07:31;;;;;;;10.57;7.22;;;;;;;19.65;79.27;96940.88;5047232;28;20083;-62
2022/09/10 00:09:58;;;;;;;7.43;6.47;;;;;;;19.68;79.11;96936.41;5045267;28;20147;-62
2022/09/10 00:12:24;;;;;;;7.55;6.72;;;;;;;19.72;78.83;96932.31;5045786;28;20111;-63
2022/09/10 00:14:52;;;;;;;9.40;6.68;;;;;;;19.19;78.92;96868.72;5046995;28;20149;-62
2022/09/10 00:17:19;;;;;;;11.30;6.45;;;;;;;19.72;78.49;96931.50;5021665;28;20169;-61
2022/09/10 00:19:45;;;;;;;9.77;6.78;;;;;;;18.98;78.23;96801.75;5005402;28;20406;-61
2022/09/10 00:22:12;;;;;;;9.95;6.80;;;;;;;19.49;78.52;96898.63;5005567;28;20077;-61
2022/09/10 00:24:39;;;;;;;9.13;7.80;;;;;;;19.25;79.96;96889.44;4992871;28;20481;-64
2022/09/10 00:27:06;;;;;;;10.70;8.45;;;;;;;19.30;82.74;96933.94;4986275;28;20537;-61
2022/09/10 00:29:33;;;;;;;11.82;8.07;;;;;;;19.05;83.20;96899.88;4987459;28;20061;-62
2022/09/10 00:31:59;;;;;;;10.68;8.20;;;;;;;19.21;84.19;96922.44;4985812;28;20133;-61
2022/09/10 00:34:26;;;;;;;13.70;8.73;;;;;;;19.30;84.57;96928.31;4985968;28;20155;-62
2022/09/10 00:36:52;;;;;;;9.20;7.57;;;;;;;18.97;82.98;96887.19;4986885;28;20064;-61
2022/09/10 00:39:19;;;;;;;9.65;7.07;;;;;;;18.90;81.70;96890.13;4985808;28;20062;-62
2022/09/10 00:41:47;;;;;;;11.13;7.45;;;;;;;18.67;81.27;96847.25;4987378;28;20133;-62
2022/09/10 00:44:36;;;;;;;8.60;6.18;;;;;;;19.24;80.95;96927.19;4986800;28;20089;-61
2022/09/10 00:47:05;;;;;;;11.40;6.05;;;;;;;18.60;81.18;96830.53;4987019;28;20544;-62
2022/09/10 00:49:37;;;;;;;10.07;6.20;;;;;;;17.02;81.07;96581.75;4986606;28;20491;-62
2022/09/10 00:52:06;;;;;;;11.97;6.37;;;;;;;19.08;81.61;96913.03;4987021;28;20074;-63
2022/09/10 00:54:35;;;;;;;8.70;6.47;;;;;;;18.93;81.67;96894.09;4987096;28;20480;-61
2022/09/10 00:57:07;;;;;;;10.50;6.75;;;;;;;19.01;81.84;96907.56;4986562;28;20137;-61
2022/09/10 00:59:34;;;;;;;9.90;6.32;;;;;;;18.75;81.03;96855.09;4985514;28;20051;-62
2022/09/10 01:02:02;;;;;;;8.80;6.72;;;;;;;19.17;81.06;96918.13;4986447;28;20154;-61
2022/09/10 01:04:31;;;;;;;8.68;6.10;;;;;;;18.84;80.96;96877.78;4985362;28;20089;-61
2022/09/10 01:06:59;;;;;;;9.35;6.25;;;;;;;18.89;82.01;96913.78;4986403;28;20082;-61
2022/09/10 01:09:26;;;;;;;7.47;6.07;;;;;;;18.81;82.44;96903.91;4986495;28;20101;-61
2022/09/10 01:12:05;;;;;;;12.35;6.47;;;;;;;18.89;82.39;96911.00;4986461;28;20144;-61
2022/09/10 01:15:17;;;;;;;8.43;6.38;;;;;;;18.88;82.09;96909.41;4985392;28;20054;-61
2022/09/10 01:18:02;;;;;;;6.97;6.07;;;;;;;18.87;82.13;96896.59;4977927;28;20141;-63
2022/09/10 01:20:54;;;;;;;10.95;6.40;;;;;;;18.85;82.69;96899.03;4986563;28;20549;-61
2022/09/10 01:23:57;;;;;;;8.00;6.45;;;;;;;18.76;82.88;96895.97;4989245;28;20144;-62
2022/09/10 01:26:40;;;;;;;9.52;6.45;;;;;;;18.74;82.79;96892.81;5005727;28;20108;-62
2022/09/10 01:29:28;;;;;;;7.10;6.40;;;;;;;18.75;83.10;96887.97;5004705;28;20180;-61
2022/09/10 01:32:11;;;;;;;8.90;6.32;;;;;;;18.85;82.42;96899.03;5005976;28;20510;-61
2022/09/10 01:35:02;;;;;;;10.68;6.40;;;;;;;18.81;81.64;96873.03;5006039;28;20976;-61
2022/09/10 01:37:30;;;;;;;7.53;6.10;;;;;;;18.35;81.88;96816.13;5005490;28;20140;-61
2022/09/10 01:39:58;;;;;;;6.82;5.85;;;;;;;18.58;83.17;96870.25;5006007;28;20475;-62
2022/09/10 01:42:27;;;;;;;8.90;5.97;;;;;;;18.69;83.04;96887.69;5005433;28;20054;-61
2022/09/10 01:44:59;;;;;;;11.18;6.03;;;;;;;18.61;82.89;96866.59;5005505;28;20093;-60
2022/09/10 01:48:05;;;;;;;10.13;6.55;;;;;;;18.72;83.39;96888.84;5004039;28;20054;-61
2022/09/10 01:50:44;;;;;;;10.85;7.80;;;;;;;18.57;85.45;96893.13;5002403;28;20064;-61
2022/09/10 01:53:30;;;;;;;10.65;8.05;;;;;;;18.46;87.25;96898.91;5004132;28;20111;-61
2022/09/10 01:56:02;;;;;;;9.75;8.80;;;;;;;18.48;88.70;96907.69;5004234;28;20053;-62
2022/09/10 01:58:40;;;;;;;11.13;8.98;;;;;;;18.37;89.93;96901.41;5005180;28;20053;-60
2022/09/10 02:01:12;;;;;;;12.27;9.30;;;;;;;18.25;91.18;96890.00;5005456;28;20065;-62
2022/09/10 02:03:43;;;;;;;13.13;8.90;;;;;;;18.30;91.59;96895.94;5004031;28;20062;-62
2022/09/10 02:06:14;;;;;;;10.93;9.82;;;;;;;18.09;91.79;96857.00;5004912;28;20595;-61
2022/09/10 02:08:44;;;;;;;13.25;9.38;;;;;;;18.25;92.74;96881.59;5003452;28;20509;-62
2022/09/10 02:11:13;;;;;;;10.77;9.07;;;;;;;18.31;92.75;96885.47;5004918;28;20088;-61
2022/09/10 02:13:43;;;;;;;13.30;9.10;;;;;;;18.30;92.45;96901.53;5005081;28;20427;-61
2022/09/10 02:16:23;;;;;;;11.65;8.05;;;;;;;18.41;89.94;96902.19;5003656;28;20089;-62
2022/09/10 02:18:50;;;;;;;22.40;8.50;;;;;;;18.19;88.28;96867.25;5004911;28;20487;-61
2022/09/10 02:21:17;;;;;;;10.13;8.38;;;;;;;18.06;92.89;96899.91;5005017;28;20148;-64
2022/09/10 02:23:49;;;;;;;11.75;9.55;;;;;;;17.71;93.58;96852.75;4998108;28;20128;-61
2022/09/10 02:26:16;;;;;;;11.65;9.93;;;;;;;17.87;92.61;96862.13;4984065;28;20139;-61
2022/09/10 02:28:43;;;;;;;13.05;10.57;;;;;;;18.18;92.33;96893.69;4984021;28;20085;-61
2022/09/10 02:31:11;;;;;;;16.20;9.90;;;;;;;18.22;92.21;96911.28;4985234;28;20141;-60
2022/09/10 02:33:38;;;;;;;15.13;10.20;;;;;;;17.79;92.66;96859.84;4985004;28;20046;-61
2022/09/10 02:36:05;;;;;;;16.10;10.40;;;;;;;17.82;95.60;96892.63;4984142;28;20070;-63
2022/09/10 02:38:32;;;;;;;16.75;10.80;;;;;;;17.87;94.23;96878.16;4985469;28;20095;-61
2022/09/10 02:40:58;;;;;;;13.95;9.68;;;;;;;18.04;93.21;96891.09;4985345;28;20085;-60
2022/09/10 02:43:26;;;;;;;14.05;7.40;;;;;;;18.04;89.96;96882.69;4985194;28;20192;-61
2022/09/10 02:45:57;;;;;;;7.55;6.55;;;;;;;18.17;88.11;96910.94;4985277;28;20081;-60
2022/09/10 02:48:25;;;;;;;8.27;6.45;;;;;;;16.10;88.19;96604.53;4985204;28;20128;-60
2022/09/10 02:50:52;;;;;;;11.55;7.00;;;;;;;18.20;87.51;96919.31;4985069;28;20506;-60
2022/09/10 02:53:19;;;;;;;8.63;7.57;;;;;;;18.24;86.80;96917.22;4983929;28;20054;-61
2022/09/10 02:55:47;;;;;;;9.98;6.57;;;;;;;18.13;87.64;96913.78;4983756;28;20169;-62
2022/09/10 02:58:15;;;;;;;10.05;6.07;;;;;;;18.08;87.79;96908.69;4984858;28;20054;-60
2022/09/10 03:00:42;;;;;;;8.43;6.40;;;;;;;18.01;87.99;96900.38;4985077;28;20149;-60
2022/09/10 03:03:10;;;;;;;12.00;8.07;;;;;;;18.03;88.22;96911.94;4983376;28;20137;-60
2022/09/10 03:05:37;;;;;;;10.45;7.03;;;;;;;18.02;88.41;96880.31;4984601;28;20552;-60
2022/09/10 03:08:05;;;;;;;7.50;5.88;;;;;;;18.03;87.99;96904.34;4988295;28;20050;-62
2022/09/10 03:10:31;;;;;;;7.10;6.38;;;;;;;17.88;88.52;96924.56;4988668;28;20145;-60
2022/09/10 03:12:59;;;;;;;9.43;6.45;;;;;;;17.84;89.03;96902.22;4987456;28;20108;-61
2022/09/10 03:15:26;;;;;;;7.22;6.30;;;;;;;17.87;89.26;96906.16;4989000;28;20141;-62
2022/09/10 03:17:53;;;;;;;10.50;7.07;;;;;;;17.87;89.02;96906.16;4988986;28;20167;-63
2022/09/10 03:20:21;;;;;;;12.00;6.78;;;;;;;17.82;88.38;96887.03;4987354;28;20141;-62
2022/09/10 03:22:50;;;;;;;10.23;7.00;;;;;;;17.90;88.31;96922.94;4989140;28;20102;-62
2022/09/10 03:25:21;;;;;;;11.02;7.03;;;;;;;17.39;88.35;96860.75;5006554;28;20535;-63
2022/09/10 03:27:48;;;;;;;9.18;6.88;;;;;;;17.77;88.62;96926.72;5008468;28;20149;-63
2022/09/10 03:30:15;;;;;;;10.40;7.13;;;;;;;17.81;89.02;96921.88;5008036;28;20049;-61
2022/09/10 03:32:41;;;;;;;8.85;7.00;;;;;;;17.83;88.77;96916.66;5008005;28;20050;-62
2022/09/10 03:35:09;;;;;;;9.98;7.28;;;;;;;17.82;89.16;96918.66;5007490;28;20493;-62
2022/09/10 03:37:35;;;;;;;9.20;7.15;;;;;;;17.78;88.72;96897.50;5006761;28;20136;-62
2022/09/10 03:40:03;;;;;;;13.25;8.63;;;;;;;17.60;90.19;96899.72;5006385;28;20127;-60
2022/09/10 03:42:30;;;;;;;12.52;9.43;;;;;;;17.65;90.35;96910.47;5007431;28;20514;-61
2022/09/10 03:44:56;;;;;;;9.63;7.85;;;;;;;17.68;89.98;96906.81;5008025;28;20533;-61
2022/09/10 03:47:23;;;;;;;10.57;7.60;;;;;;;17.02;89.77;96824.41;5007299;28;20398;-60
2022/09/10 03:49:50;;;;;;;11.40;7.30;;;;;;;17.00;90.43;96824.84;5007153;28;20145;-62
2022/09/10 03:52:17;;;;;;;11.10;7.38;;;;;;;17.53;90.41;96897.03;5007148;28;20619;-61
2022/09/10 03:54:44;;;;;;;11.00;7.45;;;;;;;17.55;90.09;96908.59;5006304;28;20504;-61
2022/09/10 03:57:11;;;;;;;9.82;7.15;;;;;;;17.67;88.87;96902.44;5007291;28;20057;-61
2022/09/10 03:59:40;;;;;;;13.15;7.45;;;;;;;17.60;88.61;96896.91;5007817;28;20049;-61
2022/09/10 04:02:08;;;;;;;7.18;6.47;;;;;;;17.60;89.08;96908.13;5007444;28;20054;-63
2022/09/10 04:04:36;;;;;;;8.57;6.60;;;;;;;17.48;89.77;96900.28;5006242;28;20092;-61
2022/09/10 04:07:03;;;;;;;9.80;6.40;;;;;;;17.51;89.91;96899.44;5007509;28;20111;-61
2022/09/10 04:09:31;;;;;;;13.18;7.05;;;;;;;17.04;89.95;96841.59;5007690;28;20112;-62
2022/09/10 04:11:59;;;;;;;12.27;7.60;;;;;;;17.61;89.51;96909.69;5007334;28;20089;-63
2022/09/10 04:14:25;;;;;;;13.52;8.30;;;;;;;17.62;88.33;96908.50;5005998;28;20513;-60
2022/09/10 04:16:52;;;;;;;13.38;9.18;;;;;;;17.25;88.33;96860.91;5007641;28;20146;-62
2022/09/10 04:19:19;;;;;;;12.35;8.27;;;;;;;16.83;88.27;96805.44;5006325;28;20509;-60
2022/09/10 04:21:46;;;;;;;11.98;7.75;;;;;;;17.20;88.47;96869.81;5006051;28;20092;-60
2022/09/10 04:24:13;;;;;;;9.93;6.82;;;;;;;17.35;88.97;96891.59;4998441;28;20108;-61
2022/09/10 04:26:40;;;;;;;10.30;6.70;;;;;;;17.60;87.68;96908.13;4987333;28;20424;-60
2022/09/10 04:29:07;;;;;;;12.20;9.93;;;;;;;17.40;87.81;96879.16;4987525;28;20086;-61
2022/09/10 04:31:34;;;;;;;13.38;9.20;;;;;;;17.36;89.14;96875.59;4987167;28;20148;-64
2022/09/10 04:34:01;;;;;;;10.80;8.38;;;;;;;16.27;89.64;96723.72;4986133;28;20058;-61
2022/09/10 04:36:28;;;;;;;11.50;8.98;;;;;;;17.68;91.09;96915.22;4987274;28;20117;-62
2022/09/10 04:38:54;;;;;;;12.65;9.15;;;;;;;17.01;90.61;96808.84;4987385;28;20097;-75
2022/09/10 04:41:21;;;;;;;16.52;8.82;;;;;;;17.80;90.64;96914.66;4987120;28;20133;-76
2022/09/10 04:43:48;;;;;;;10.65;8.60;;;;;;;17.93;90.23;96910.09;4987069;28;20053;-75
2022/09/10 04:46:14;;;;;;;15.13;8.90;;;;;;;18.01;89.75;96912.38;4986132;28;20130;-73
2022/09/10 04:48:41;;;;;;;12.43;9.27;;;;;;;17.69;88.62;96839.16;4986765;28;20885;-73
2022/09/10 04:51:12;;;;;;;12.20;8.35;;;;;;;18.28;86.32;96922.78;4984194;28;20086;-73
2022/09/10 04:53:44;;;;;;;15.50;10.93;;;;;;;18.31;84.60;96891.91;5005402;28;20046;-73
2022/09/10 04:56:11;;;;;;;11.10;7.60;;;;;;;18.44;83.89;96901.34;5005088;28;20057;-72
2022/09/10 04:58:39;;;;;;;11.52;7.20;;;;;;;18.42;82.90;96903.78;5006552;28;20164;-71
2022/09/10 05:01:07;;;;;;;12.50;6.55;;;;;;;18.33;82.78;96855.81;5005325;28;20147;-72
2022/09/10 05:03:33;;;;;;;13.82;6.70;;;;;;;18.82;81.52;96888.66;5005166;28;20091;-72
2022/09/10 05:06:01;;;;;;;9.35;6.50;;;;;;;18.92;80.60;96904.50;5005197;28;20136;-73
2022/09/10 05:08:28;;;;;;;6.55;5.55;;;;;;;18.96;80.12;96882.78;5005405;28;20057;-74
2022/09/10 05:10:55;;;;;;;9.68;6.78;;;;;;;19.08;80.59;96907.44;5004940;28;20947;-73
2022/09/10 05:13:23;;;;;;;7.72;5.97;;;;;;;19.29;78.94;96890.22;5004704;28;20108;-74
2022/09/10 05:15:49;;;;;;;11.30;5.20;;;;;;;19.13;77.71;96824.69;5006228;28;20135;-71
2022/09/10 05:18:16;;;;;;;7.18;5.05;;;;;;;19.78;76.73;96890.41;5005910;28;20083;-72
2022/09/10 05:20:46;;;;;;;5.65;5.05;;;;;;;19.96;76.08;96908.50;5004569;28;20608;-73
2022/09/10 05:23:12;;;;;;;11.60;5.57;;;;;;;19.92;75.74;96870.41;5006476;28;20140;-71
2022/09/10 05:25:39;;;;;;;8.55;5.88;;;;;;;19.72;74.94;96850.78;5025628;28;20218;-73
2022/09/10 05:28:05;;;;;;;8.60;5.85;;;;;;;20.21;75.05;96893.91;5023913;28;20139;-71
2022/09/10 05:30:32;;;;;;;10.25;5.50;;;;;;;20.23;74.74;96889.41;5025044;28;20144;-75
2022/09/10 05:33:00;;;;;;;7.07;5.50;;;;;;;20.19;74.96;96899.97;5025009;28;20089;-74
2022/09/10 05:35:27;;;;;;;9.45;5.93;;;;;;;20.30;74.42;96892.06;5025677;28;20879;-75
2022/09/10 05:38:00;;;;;;;7.25;5.07;;;;;;;20.25;73.64;96872.13;5025228;28;20057;-73
2022/09/10 05:40:28;;;;;;;7.32;5.13;;;;;;;20.47;72.95;96890.06;5023770;28;20132;-73
2022/09/10 05:42:55;;;;;;;14.75;6.72;;;;;;;20.34;72.30;96875.09;5023665;28;20060;-74
2022/09/10 05:45:22;;;;;;;11.43;5.22;;;;;;;20.55;73.15;96897.13;5023578;28;20061;-69
2022/09/10 05:47:49;;;;;;;11.13;7.13;;;;;;;20.41;73.73;96897.44;5024759;28;20049;-71
2022/09/10 05:50:16;;;;;;;12.30;6.80;;;;;;;20.58;73.52;96879.34;5024197;28;20080;-71
2022/09/10 05:52:43;;;;;;;18.20;7.57;;;;;;;20.92;73.17;96868.41;5024512;28;20057;-73
2022/09/10 05:55:11;;;;;;;14.25;7.53;;;;;;;21.14;71.98;96866.63;5024944;28;20053;-72
2022/09/10 05:57:39;;;;;;;21.50;8.23;;;;;;;21.70;70.42;96881.94;5024827;28;20115;-74
2022/09/10 06:00:09;;;;;;;14.90;7.15;;;;;;;22.06;68.80;96885.31;5024789;28;20053;-73
2022/09/10 06:02:36;;;;;;;14.10;5.75;;;;;;;22.47;66.10;96878.78;5024632;28;20095;-74
2022/09/10 06:05:03;;;;;;;12.30;5.97;;;;;;;22.34;65.32;96846.94;5024362;28;20061;-71
2022/09/10 06:07:30;;;;;;;13.07;6.00;;;;;;;22.68;65.55;96882.97;5024634;28;20058;-69
2022/09/10 06:09:56;;;;;;;12.95;5.38;;;;;;;22.97;64.49;96880.78;5023270;28;20115;-68
2022/09/10 06:12:23;;;;;;;7.72;5.38;;;;;;;23.14;63.50;96876.53;5024513;28;20151;-68
2022/09/10 06:14:50;;;;;;;9.38;5.50;;;;;;;23.30;62.13;96867.94;5025275;28;20085;-68
2022/09/10 06:17:17;;;;;;;8.77;6.90;;;;;;;23.06;61.90;96810.22;5022818;28;20132;-69
2022/09/10 06:19:45;;;;;;;11.35;5.72;;;;;;;23.39;61.63;96848.22;5024508;28;20152;-67
2022/09/10 06:22:12;;;;;;;11.70;4.93;;;;;;;23.79;61.12;96888.72;5024562;28;20061;-68
2022/09/10 06:24:38;;;;;;;8.52;5.13;;;;;;;23.89;61.52;96884.69;5011491;28;20058;-67
2022/09/10 06:27:05;;;;;;;9.23;5.00;;;;;;;23.26;61.67;96808.69;5004746;28;20128;-67
2022/09/10 06:29:32;;;;;;;6.45;4.57;;;;;;;23.74;62.08;96884.44;5003398;28;20054;-68
2022/09/10 06:31:59;;;;;;;9.52;5.25;;;;;;;23.74;62.31;96892.16;5003232;28;20062;-68
2022/09/10 06:34:25;;;;;;;7.85;5.28;;;;;;;23.77;63.03;96896.88;5002898;28;20499;-67
2022/09/10 06:36:52;;;;;;;13.35;5.65;;;;;;;23.38;62.86;96807.03;5004079;28;20414;-67
2022/09/10 06:39:19;;;;;;;8.98;5.80;;;;;;;23.78;63.10;96875.81;5003009;28;20058;-66
2022/09/10 06:41:46;;;;;;;9.30;5.40;;;;;;;23.77;63.29;96879.91;5007619;28;20100;-66
2022/09/10 06:44:17;;;;;;;20.48;7.78;;;;;;;23.18;64.89;96848.94;5011334;28;20089;-67
2022/09/10 06:46:43;;;;;;;18.60;7.38;;;;;;;22.48;67.85;96851.34;5009722;28;20538;-67
2022/09/10 06:49:30;;;;;;;17.75;7.70;;;;;;;23.10;67.20;96864.56;5010821;28;20064;-67
2022/09/10 06:51:57;;;;;;;13.05;7.38;;;;;;;23.11;66.75;96866.94;5010959;28;20151;-67
2022/09/10 06:54:25;;;;;;;9.93;5.53;;;;;;;23.12;66.06;96834.63;5011092;28;20081;-67
2022/09/10 06:56:51;;;;;;;11.45;5.97;;;;;;;23.59;65.29;96877.75;5009132;28;20108;-67
2022/09/10 06:59:18;;;;;;;10.90;5.55;;;;;;;23.30;64.38;96794.44;5009564;28;20054;-67
2022/09/10 07:01:46;;;;;;;9.57;5.85;;;;;;;24.19;63.47;96878.31;5010863;28;20081;-66
2022/09/10 07:04:13;;;;;;;9.13;5.22;;;;;;;23.82;61.90;96780.31;5009207;28;20112;-66
2022/09/10 07:06:39;;;;;;;6.45;5.72;;;;;;;24.32;61.10;96828.03;5008619;28;20089;-67
2022/09/10 07:09:06;;;;;;;9.85;5.38;;;;;;;24.74;60.79;96874.47;5011122;28;20054;-65
2022/09/10 07:11:33;;;;;;;7.28;5.10;;;;;;;24.94;59.86;96848.56;5010652;28;20144;-67
2022/09/10 07:14:11;;;;;;;6.78;5.80;;;;;;;25.19;59.12;96865.28;5009634;28;20140;-68
2022/09/10 07:16:40;;;;;;;8.52;5.30;;;;;;;24.09;61.06;96851.19;5010437;28;20115;-66
2022/09/10 07:19:07;;;;;;;10.27;5.22;;;;;;;23.73;62.42;96848.13;5009430;28;20080;-66
2022/09/10 07:21:35;;;;;;;9.98;5.05;;;;;;;24.44;61.11;96855.44;5010246;28;20095;-67
2022/09/10 07:24:04;;;;;;;9.35;5.15;;;;;;;24.84;60.75;96872.44;5016938;28;20582;-67
2022/09/10 07:26:31;;;;;;;5.78;5.15;;;;;;;24.97;58.54;96794.56;5030167;28;20603;-67
2022/09/10 07:28:58;;;;;;;7.35;5.25;;;;;;;25.28;58.89;96857.56;5028858;28;20119;-67
2022/09/10 07:31:26;;;;;;;7.43;5.28;;;;;;;25.73;58.06;96864.50;5030276;28;20053;-67
2022/09/10 07:34:02;;;;;;;8.02;5.65;;;;;;;25.64;57.59;96856.03;5028662;28;20468;-67
2022/09/10 07:36:30;;;;;;;5.43;4.70;;;;;;;25.54;56.43;96863.75;5029230;28;20118;-67
2022/09/10 07:39:00;;;;;;;7.45;5.18;;;;;;;25.52;55.86;96820.06;5030414;28;20084;-66
2022/09/10 07:41:28;;;;;;;9.65;6.03;;;;;;;25.98;54.32;96864.16;5030799;28;20045;-67
2022/09/10 07:43:56;;;;;;;6.63;5.38;;;;;;;26.06;53.76;96859.75;5028432;28;20060;-68
2022/09/10 07:46:24;;;;;;;6.22;5.38;;;;;;;26.05;53.83;96819.19;5030355;28;20161;-69
2022/09/10 07:48:59;;;;;;;9.05;5.30;;;;;;;26.55;51.86;96863.06;5028688;28;20049;-66
2022/09/10 07:51:28;;;;;;;8.73;5.55;;;;;;;26.71;51.39;96859.84;5030121;28;20093;-68
2022/09/10 07:53:58;;;;;;;8.35;5.18;;;;;;;27.14;50.53;96850.72;5027897;28;20413;-67
2022/09/10 07:56:25;;;;;;;5.72;5.18;;;;;;;27.04;49.56;96789.50;5026114;28;20132;-68
2022/09/10 07:58:53;;;;;;;11.90;4.95;;;;;;;27.55;48.33;96849.81;5025730;28;20368;-67
2022/09/10 08:01:20;;;;;;;6.50;5.55;;;;;;;27.56;48.20;96839.22;5027305;28;20063;-67
2022/09/10 08:03:47;;;;;;;8.70;5.10;;;;;;;28.08;47.55;96841.25;5026954;28;20475;-67
2022/09/10 08:06:14;;;;;;;15.32;8.32;;;;;;;26.71;48.46;96746.16;5026657;28;20092;-67
2022/09/10 08:08:41;;;;;;;30.90;15.60;;;;;;;26.27;50.71;96784.91;5025346;28;20053;-68
2022/09/10 08:11:17;;;;;;;12.52;8.43;;;;;;;26.97;49.54;96795.56;5025106;28;20524;-67
2022/09/10 08:13:47;;;;;;;8.80;6.07;;;;;;;27.41;48.71;96804.25;5025539;28;20053;-67
2022/09/10 08:16:17;;;;;;;28.73;13.63;;;;;;;27.95;48.18;96844.41;5026684;28;20084;-68
2022/09/10 08:18:48;;;;;;;17.27;12.32;;;;;;;27.87;46.92;96848.09;5025722;28;20057;-67
2022/09/10 08:21:16;;;;;;;17.02;8.25;;;;;;;27.07;49.53;96807.66;5026726;28;20479;-66
2022/09/10 08:23:47;;;;;;;12.02;5.60;;;;;;;27.78;46.79;96833.94;5022067;28;20058;-67
2022/09/10 08:26:14;;;;;;;13.80;8.35;;;;;;;28.06;45.42;96838.91;5007167;28;20169;-67
2022/09/10 08:28:43;;;;;;;14.77;6.75;;;;;;;27.60;45.91;96811.38;5007220;28;20054;-67
2022/09/10 08:31:11;;;;;;;11.32;7.20;;;;;;;28.01;46.16;96845.28;5007077;28;20065;-67
2022/09/10 08:33:39;;;;;;;7.45;6.15;;;;;;;28.80;45.28;96842.47;5006987;28;20050;-68
2022/09/10 08:36:10;;;;;;;7.53;5.28;;;;;;;29.14;43.99;96838.81;5006583;28;20053;-67
2022/09/10 08:38:38;;;;;;;7.22;6.30;;;;;;;29.38;44.42;96839.41;5005499;28;20057;-66
2022/09/10 08:41:12;;;;;;;6.97;6.28;;;;;;;28.45;43.87;96705.63;5005208;28;20136;-68
2022/09/10 08:43:57;;;;;;;6.95;5.93;;;;;;;29.22;44.33;96831.41;5021414;28;20066;-66
2022/09/10 08:46:28;;;;;;;7.80;5.47;;;;;;;28.18;44.86;96709.59;5006951;28;20045;-66
2022/09/10 08:49:36;;;;;;;6.55;5.85;;;;;;;29.40;43.58;96806.22;5004311;28;20045;-69
2022/09/10 08:52:19;;;;;;;7.05;5.97;;;;;;;29.79;42.66;96789.53;4985731;28;20062;-68
2022/09/10 08:54:58;;;;;;;12.90;10.27;;;;;;;27.62;43.28;96549.78;4985767;28;20428;-67
2022/09/10 08:57:38;;;;;;;7.47;5.70;;;;;;;26.80;44.50;96532.91;4986973;28;20356;-67
2022/09/10 09:00:10;;;;;;;7.93;6.00;;;;;;;29.03;43.45;96805.22;4985632;28;20141;-67
2022/09/10 09:02:58;;;;;;;10.95;6.40;;;;;;;28.70;44.28;96812.50;4985489;28;20054;-66
2022/09/10 09:05:27;;;;;;;10.40;7.47;;;;;;;28.33;43.77;96752.31;4985226;28;20058;-67
2022/09/10 09:07:57;;;;;;;12.48;7.53;;;;;;;27.99;45.28;96810.03;4985656;28;20476;-66
2022/09/10 09:10:24;;;;;;;11.48;8.40;;;;;;;28.52;45.21;96807.03;4986972;28;20137;-67
2022/09/10 09:13:25;;;;;;;7.68;6.15;;;;;;;28.58;44.66;96819.31;4986542;28;20058;-66
2022/09/10 09:15:57;;;;;;;11.10;6.00;;;;;;;28.76;44.51;96787.69;4974120;28;20132;-67
2022/09/10 09:18:45;;;;;;;9.52;6.82;;;;;;;28.34;44.42;96795.84;4984704;28;20507;-68
2022/09/10 09:21:16;;;;;;;6.30;5.70;;;;;;;28.30;45.64;96792.41;4986153;28;20064;-67
2022/09/10 09:23:57;;;;;;;10.23;5.90;;;;;;;28.26;45.34;96788.97;4989033;28;20061;-67
2022/09/10 09:26:44;;;;;;;7.85;5.93;;;;;;;28.29;45.62;96793.69;5005253;28;20058;-67
2022/09/10 09:29:17;;;;;;;6.78;6.13;;;;;;;28.62;44.75;96789.31;5004329;28;20165;-67
2022/09/10 09:31:52;;;;;;;8.32;6.78;;;;;;;28.39;45.68;96792.31;5005561;28;20055;-66
2022/09/10 09:34:40;;;;;;;9.90;7.38;;;;;;;27.89;46.43;96786.56;5005346;28;20053;-64
2022/09/10 09:37:29;;;;;;;13.02;7.07;;;;;;;27.74;47.03;96788.56;5005183;28;20049;-66
2022/09/10 09:40:20;;;;;;;7.13;6.43;;;;;;;28.20;46.05;96788.13;5004251;28;20054;-66
2022/09/10 09:42:57;;;;;;;6.70;5.47;;;;;;;28.27;45.63;96756.34;5005770;28;20109;-68
2022/09/10 09:45:36;;;;;;;5.95;5.40;;;;;;;28.53;45.14;96785.81;5005416;28;20096;-66
2022/09/10 09:48:11;;;;;;;6.18;5.57;;;;;;;28.66;45.06;96774.88;5005486;28;20548;-67
2022/09/10 09:50:40;;;;;;;11.20;6.63;;;;;;;28.21;45.69;96746.94;5018914;28;20191;-69
2022/09/10 09:53:17;;;;;;;10.80;6.10;;;;;;;27.02;45.44;96526.81;5023518;28;20049;-67
2022/09/10 09:55:48;;;;;;;10.77;6.90;;;;;;;28.55;45.37;96760.47;5024909;28;20053;-68
2022/09/10 09:58:21;;;;;;;12.45;5.93;;;;;;;28.51;45.53;96742.75;5023385;28;20053;-68
2022/09/10 10:00:53;;;;;;;10.65;6.05;;;;;;;28.68;45.04;96736.00;5023296;28;20049;-67
2022/09/10 10:03:28;;;;;;;11.03;6.10;;;;;;;29.48;43.74;96743.78;5024379;28;20487;-69
2022/09/10 10:06:10;;;;;;;6.72;5.97;;;;;;;29.95;42.98;96740.34;5022934;28;20411;-66
2022/09/10 10:08:58;;;;;;;11.13;6.40;;;;;;;30.43;42.15;96729.81;5024653;28;20137;-65
2022/09/10 10:11:44;;;;;;;7.95;6.68;;;;;;;29.59;42.98;96718.19;5024838;28;20061;-66
2022/09/10 10:14:21;;;;;;;18.52;10.55;;;;;;;29.15;44.42;96729.13;5022901;28;20534;-67
2022/09/10 10:16:53;;;;;;;6.65;5.93;;;;;;;28.89;44.13;96716.84;5023672;28;20053;-68
2022/09/10 10:19:35;;;;;;;6.15;5.55;;;;;;;28.98;44.17;96725.25;5023476;28;20084;-67
2022/09/10 10:22:31;;;;;;;9.35;6.03;;;;;;;29.20;43.88;96720.63;5024685;28;20059;-67
2022/09/10 10:25:00;;;;;;;13.82;7.93;;;;;;;29.23;44.15;96718.81;4997622;28;20076;-66
2022/09/10 10:27:44;;;;;;;8.20;6.95;;;;;;;30.00;43.19;96719.63;5004876;28;20485;-66
2022/09/10 10:30:10;;;;;;;9.18;6.38;;;;;;;30.45;42.16;96712.97;5003112;28;20053;-67
2022/09/10 10:32:39;;;;;;;6.00;5.50;;;;;;;29.41;42.73;96698.53;5004657;28;20546;-70
2022/09/10 10:35:31;;;;;;;6.75;6.05;;;;;;;30.24;42.61;96705.03;5003262;28;20108;-69
2022/09/10 10:38:29;;;;;;;12.15;6.15;;;;;;;30.27;42.06;96698.28;5004834;28;20062;-69
2022/09/10 10:41:08;;;;;;;8.80;6.22;;;;;;;30.47;41.46;96696.06;5004847;28;20606;-69
2022/09/10 10:43:53;;;;;;;12.23;8.50;;;;;;;30.55;41.59;96699.22;5004556;28;20588;-67
2022/09/10 10:46:33;;;;;;;8.10;5.72;;;;;;;30.71;40.58;96676.41;5003410;28;20066;-67
2022/09/10 10:49:20;;;;;;;9.63;6.65;;;;;;;30.22;42.24;96694.09;5002943;28;20066;-71
2022/09/10 10:51:58;;;;;;;12.77;6.90;;;;;;;30.83;41.45;96695.25;5004302;28;20449;-68
2022/09/10 10:54:57;;;;;;;13.35;8.38;;;;;;;30.77;40.70;96696.53;5004819;28;20061;-68
2022/09/10 10:57:39;;;;;;;9.90;6.68;;;;;;;30.32;41.41;96684.00;5002743;28;20611;-68
2022/09/10 11:00:12;;;;;;;7.35;6.22;;;;;;;30.66;41.14;96691.50;5004425;28;20054;-69
2022/09/10 11:02:51;;;;;;;9.48;7.82;;;;;;;30.77;40.81;96631.53;5003129;28;20127;-69
2022/09/10 11:05:41;;;;;;;6.80;6.10;;;;;;;30.35;41.40;96677.28;5003064;28;20491;-69
2022/09/10 11:08:14;;;;;;;9.18;6.00;;;;;;;30.82;41.08;96675.75;5003985;28;20054;-68
2022/09/10 11:10:55;;;;;;;9.38;5.72;;;;;;;30.45;40.41;96590.00;5002927;28;20600;-68
2022/09/10 11:13:31;;;;;;;8.90;7.28;;;;;;;30.86;40.22;96648.44;5004071;28;20519;-70
2022/09/10 11:16:06;;;;;;;22.23;12.02;;;;;;;30.03;42.17;96669.25;5002899;28;20050;-67
2022/09/10 11:18:56;;;;;;;32.05;15.82;;;;;;;30.64;41.30;96668.34;5002704;28;20072;-68
2022/09/10 11:21:55;;;;;;;15.27;11.30;;;;;;;30.37;41.99;96663.25;5003882;28;20480;-69
2022/09/10 11:24:27;;;;;;;9.07;6.57;;;;;;;31.06;40.69;96661.78;5011208;28;20535;-69
2022/09/10 11:27:15;;;;;;;11.10;6.20;;;;;;;31.63;39.75;96656.44;5024325;28;20115;-69
2022/09/10 11:29:53;;;;;;;14.02;6.38;;;;;;;30.99;40.51;96587.88;5027859;28;20743;-69
2022/09/10 11:32:31;;;;;;;10.43;5.97;;;;;;;31.90;39.13;96657.78;5027636;28;20049;-70
2022/09/10 11:35:23;;;;;;;7.43;6.60;;;;;;;31.78;39.08;96613.19;5026302;28;20049;-69
2022/09/10 11:38:03;;;;;;;6.88;6.25;;;;;;;31.87;39.43;96612.97;5027762;28;20053;-70
2022/09/10 11:41:05;;;;;;;9.40;6.53;;;;;;;32.39;39.40;96636.88;5025860;28;20064;-68
2022/09/10 11:43:41;;;;;;;6.82;5.95;;;;;;;32.54;38.47;96645.97;5027249;28;20061;-68
2022/09/10 11:46:17;;;;;;;10.13;5.90;;;;;;;32.62;38.44;96641.25;5026007;28;20463;-69
2022/09/10 11:49:08;;;;;;;7.57;6.80;;;;;;;32.19;38.39;96628.56;5027025;28;20049;-67
2022/09/10 11:51:36;;;;;;;10.10;6.70;;;;;;;31.69;39.93;96584.81;5025676;28;20046;-69